Granit Xhaka

Scout - Basel
10 Dec 2028
Sunday
Process

Personality

Adaptability (11) Ambition (5) Controversy (13) Loyalty (20) Pressure (6) Professionalism (11) Sportsmanship (9) Temperament (13)

Profile

Coaching Style Democratic
License Continental A
Determination 12
Man Management 10
Motivating 7
Discipline 7
Job Satisfaction
100%
Fatigue
0%
Role Scout
Wage 25.8K p/w
Contract 14.03.2029

Performance

Behaviour Good
Training Effectiveness
33%
Player Development
70%
Injury Prevention
25%
Tactical Implementation
40%

Recent Events

Assessed a player now
Attended a recruitment meeting now
Recommended a transfer target now
Recommended a transfer target now
Recommended a transfer target now
Assessed a player now
Assessed a player now
Assessed a player 7d ago

Currently Monitoring

135
Player Club Status Ability Confidence Watched Last Observed Latest Vote
Daiki Matsuoka Avispa Fukuoka Active 136 / 131 40% 2 09.12.2028 -
Tojiro Kubo Kashiwa Reysol Active 135 / 129 40% 2 09.12.2028 -
Agustín Giay Palmeiras Active 138 / 144 40% 1 09.12.2028 -
Aarón Quiros Vélez Active 130 / 140 40% 3 08.12.2028 -
Paulo Henrique Vasco da Gama Active 130 / 126 40% 1 08.12.2028 -
Emanuel Mammana Vélez Active 128 / 131 40% 1 08.12.2028 -
Camilo Martinez Cortulua Active 131 / 126 40% 4 07.12.2028 -
Rico Henry River Plate Active 143 / 131 40% 3 07.12.2028 -
Rui Modesto Vancouver Whitecaps Active 128 / 130 40% 1 07.12.2028 -
Facundo Mura Inter Miami CF Active 129 / 121 40% 4 05.12.2028 -
Marlon Juventude Active 127 / 117 40% 1 05.12.2028 -
Jermein Peña Junior Active 129 / 137 40% 1 05.12.2028 -
Emiliano Álvarez Progreso Active 126 / 125 40% 2 04.12.2028 -
Gastón Martirena Racing Club Active 131 / 139 40% 5 04.12.2028 -
Kaiki Cruzeiro Active 141 / 127 40% 1 04.12.2028 -
Jan Carlos Ángulo Deportes Tolima Active 123 / 124 40% 1 03.12.2028 -
Matheus Bidu Corinthians Active 133 / 131 40% 1 03.12.2028 -
Willian Batista Cortulua Active 148 / 158 40% 2 02.12.2028 -
Jonathan De Irastorza Independiente Active 132 / 123 40% 2 02.12.2028 -
Lucas Piton Vasco da Gama Active 138 / 125 40% 1 02.12.2028 -
Marcos López Gimnasia La Plata Active 133 / 131 40% 2 30.11.2028 -
Eros Mancuso Fortaleza Active 127 / 119 40% 2 30.11.2028 -
Matheus Rossetto Fortaleza Active 129 / 137 40% 1 28.11.2028 -
Riku Handa Gamba Osaka Active 135 / 142 40% 1 28.11.2028 -
Nahuel Furtado Atletico Nacional Active 129 / 132 40% 4 27.11.2028 -
Fábio Vieira Huddersfield Town Active 154 / 152 40% 1 27.11.2028 -
Juan Pablo Freytes Fluminense Active 135 / 136 40% 1 27.11.2028 -
Takuya Ogiwara Urawa Reds Active 129 / 134 40% 2 26.11.2028 -
Kayne Ramsay Atlético Mineiro Active 132 / 129 40% 2 26.11.2028 -
Vicente Poggi Godoy Cruz Active 128 / 136 40% 1 25.11.2028 -
Thiago Silvero Vélez Active 129 / 124 40% 1 25.11.2028 -
Gonzalo Pérez Lanús Active 126 / 119 40% 2 22.11.2028 -
Santiago Salcedo Cruzeiro Active 159 / 162 40% 2 22.11.2028 -
Japhet Sery Larsen Philadelphia Union Active 129 / 128 40% 2 19.11.2028 -
Bruno Leyes Godoy Cruz Active 128 / 126 40% 3 19.11.2028 -
Kimito Nono Yokohama F. Marinos Active 130 / 132 40% 1 19.11.2028 -
Nicolás Tripichio San Lorenzo Active 127 / 129 40% 1 17.11.2028 -
Riku Yamane Yokohama F. Marinos Active 136 / 142 40% 3 14.11.2028 -
Gonzalo Luján Inter Miami CF Active 127 / 123 40% 2 14.11.2028 -
Loïc Williams Charlotte Football Club Active 134 / 137 40% 1 13.11.2028 -
Gastón Benedetti Estudiantes Active 131 / 124 40% 1 13.11.2028 -
Matheus Thuler Vegalta Sendai Active 133 / 143 40% 1 12.11.2028 -
Sota Miura Kawasaki Frontale Active 126 / 116 40% 1 12.11.2028 -
Francisco Álvarez Nacional Active 127 / 115 40% 3 11.11.2028 -
Felipe Peña Biafore Lanús Active 133 / 128 40% 2 10.11.2028 -
Ignacio Vázquez Platense Active 129 / 140 40% 1 09.11.2028 -
Tomás Escalante River Plate Active 127 / 112 40% 1 09.11.2028 -
Franco Ibarra Rosario Central Active 130 / 141 40% 1 08.11.2028 -
Emanuel Coronel Rosario Central Active 126 / 129 40% 1 07.11.2028 -
Nahuel Tenaglia Banfield Active 135 / 123 40% 3 06.11.2028 -
Christian Kashima Antlers Active 139 / 144 40% 1 06.11.2028 -
Jahkeele Marshall-Rutty New York Red Bulls Active 127 / 127 40% 1 04.10.2028 -
Juan Manuel Sanabria Real Salt Lake Active 131 / 135 40% 1 04.10.2028 -
Marco Di Cesare Racing Club Active 130 / 124 40% 2 03.10.2028 -
Juan Sierra La Equidad Active 132 / 141 40% 1 03.10.2028 -
Kai Wagner Philadelphia Union Active 125 / 122 40% 1 02.10.2028 -
Nikolas Muci Grasshopper Report Ready 121 / 121 93% 1 28.08.2028 -
Adrián Sánchez Belgrano Lost 126 / 126 40% 1 28.08.2028 -
Benji Siegrist Grasshopper Report Ready 120 / 119 93% 1 21.08.2028 -
Baltazar Sion Lost 119 / 121 93% 1 14.08.2028 -
Carlos Romero Villarreal Active 160 / 159 40% 4 07.08.2028 -
Lamare Bogarde Reading Active 145 / 141 40% 5 07.08.2028 -
Andrey Santos Bolton Wanderers Active 152 / 157 40% 3 02.08.2028 -
Marvin Park Las Palmas Active 141 / 136 40% 2 02.08.2028 -
Bojan Kovačević Cádiz Active 140 / 134 40% 1 02.08.2028 -
Zito Luvumbo Cagliari Active 140 / 138 40% 1 25.07.2028 -
Rodrigo Muniz Fulham Active 148 / 142 40% 1 25.07.2028 -
Luis Suárez Sporting CP Active 163 / 161 40% 1 25.07.2028 -
Nils Reichmuth Thun Active 123 / 120 93% 1 17.07.2028 Approve
Ali Kabacalman Sion Active 117 / 124 93% 1 10.07.2028 Approve
Matteo di Giusto Luzern Lost 132 / 138 93% 1 03.07.2028 -
Omar El Hilali Espanyol Active 157 / 150 40% 7 12.06.2028 -
Thierry Small Preston Active 128 / 126 40% 3 12.06.2028 -
Sinan Karweina Luzern Lost 117 / 116 93% 1 06.06.2028 -
Nicolas Jackson Aston Villa Active 155 / 150 40% 1 01.06.2028 -
Arnaud Kalimuendo Nottingham Forest Lost 149 / 156 40% 1 01.06.2028 -
Bafodé Diakité Plymouth Argyle Active 147 / 138 40% 3 31.05.2028 -
Jayden Danns Bradford City Active 139 / 139 40% 1 31.05.2028 -
Thiago Brentford Active 154 / 145 40% 1 31.05.2028 -
Matteo Ruggeri Middlesbrough Active 156 / 150 40% 8 30.05.2028 -
Neco Williams Wrexham Active 152 / 145 40% 7 29.05.2028 -
Yasin Ayari Middlesbrough Active 152 / 148 40% 1 29.05.2028 -
Angeliño AS Roma Active 154 / 148 40% 1 28.05.2028 -
Iván Martín Racing Santander Active 150 / 146 40% 2 27.05.2028 -
Jesús Areso Athletic Bilbao Active 150 / 154 40% 3 23.05.2028 -
Mats Wieffer Brighton Active 152 / 158 40% 5 22.05.2028 -
André Wolverhampton Active 153 / 151 40% 2 21.05.2028 -
Alex Scott Bournemouth Active 157 / 163 40% 5 21.05.2028 -
Calvin Ramsay Bristol Rovers Active 126 / 124 40% 1 20.05.2028 -
Boubacar Kamara Aston Villa Active 168 / 162 40% 3 19.05.2028 -
Welington Southampton Active 137 / 131 40% 1 19.05.2028 -
José Ángel Carmona Sevilla Active 155 / 157 40% 4 17.05.2028 -
Antonio Blanco Alavés Active 151 / 144 40% 4 17.05.2028 -
Vitaly Janelt Derby County Active 149 / 148 40% 2 17.05.2028 -
Dean Huijsen Las Palmas Active 149 / 147 40% 1 15.05.2028 -
Max Johnston Derby County Active 135 / 137 40% 4 14.05.2028 -
Fran García Betis Active 153 / 160 40% 5 13.05.2028 -
Jarrad Branthwaite Everton Active 159 / 161 40% 2 07.05.2028 -
David Møller Wolfe Wolverhampton Active 142 / 146 40% 2 07.05.2028 -
Timothy Castagne Stoke City Active 143 / 140 40% 1 07.05.2028 -
Santi Comesaña Villarreal Active 155 / 152 40% 2 05.05.2028 -
Arnau Martínez Valencia Active 152 / 145 40% 3 05.05.2028 -
Shea Charles Southampton Active 147 / 146 40% 3 04.05.2028 -
Callum Brittain Middlesbrough Active 136 / 141 40% 2 04.05.2028 -
Aaron Hickey Brentford Active 151 / 153 40% 3 03.05.2028 -
Xaver Schlager Nottingham Forest Active 155 / 155 40% 1 03.05.2028 -
Jayden Bogle Leeds United Active 146 / 138 40% 4 29.04.2028 -
Exequiel Palacios Lazio Active 163 / 153 40% 2 27.04.2028 -
Adam Wharton Crystal Palace Active 158 / 162 40% 1 27.04.2028 -
Sander Berge Derby County Active 148 / 148 40% 1 26.04.2028 -
Max Bird Birmingham Active 137 / 132 40% 2 23.04.2028 -
Quinten Timber Crystal Palace Active 156 / 162 40% 1 23.04.2028 -
Nordi Mukiele Sunderland Active 148 / 150 40% 2 21.04.2028 -
Ryan Sessegnon Fulham Active 152 / 154 40% 2 17.04.2028 -
Bobby Thomas Grimsby Town Active 139 / 130 40% 1 17.04.2028 -
Manu Koné AS Roma Active 171 / 175 40% 2 10.04.2028 -
Javi Rodríguez Celta Active 156 / 149 40% 2 08.04.2028 -
Alejandro Francés Girona Active 140 / 143 40% 1 07.04.2028 -
Zakaria El Ouahdi Hamburger SV Active 136 / 142 40% 1 05.04.2028 -
Sven Botman Newcastle United Active 163 / 160 40% 1 04.04.2028 -
Óscar Mingueza Crystal Palace Active 157 / 162 40% 1 03.04.2028 -
Yan Valery Sheffield Wednesday Active 127 / 118 40% 1 01.04.2028 -
Kike Salas Sevilla Active 149 / 157 40% 1 28.03.2028 -
Renan Lodi Atlético Mineiro Active 146 / 136 40% 1 20.03.2028 -
Sergi Cardona KAA Gent Active 152 / 156 40% 1 20.03.2028 -
Kenny Tete Fulham Active 146 / 147 40% 1 18.03.2028 -
Manuel Ugarte Leicester City Active 147 / 155 40% 1 18.03.2028 -
Dwight McNeil Crystal Palace Lost 144 / 148 40% 1 31.12.2027 -
Yassir Zabiri Stade Rennais Active 140 / 144 40% 1 31.12.2027 -
Liam Chipperfield Sion Active 107 / 123 83% 1 03.06.2027 Approve
Azor Matusiwa Ipswich Town Active 134 / 138 40% 1 31.05.2027 -
Anthony Patterson Wrexham Active 130 / 133 40% 1 31.12.2026 -
Mile Svilar AS Roma Active 160 / 170 40% 1 31.12.2026 -
Miro Muheim Hamburger SV Active 127 / 143 40% 1 02.08.2026 -
Ellyes Skhiri Köln Active 133 / 135 40% 1 02.08.2026 -